Terminal Aerodrome Forecast
Issued by NWS Wilmington, OH

Home | Current Version | Previous Version | Text Only | Print | Product List | Glossary On
Versions: 1 2 3 4 5 6 7 8 9 10 11 12 13 14 15 16 17 18 19 20 21
385
FTUS41 KILN 281314 AAB
TAFILN
TAF AMD
KILN 281314Z 2813/2912 28005KT 5SM BR VCSH BKN004 OVC028
     FM281500 32006KT P6SM OVC008
     FM281800 36008KT P6SM OVC015
     FM282100 36010KT P6SM OVC025
     FM290800 03006KT P6SM BKN025=

USA.gov is the U.S. government's official web portal to all federal, state and local government web resources and services.